Time;durP1;ratioP1;P1;durP2;ratioP2;P2;SDS_P1;SDS_P2;PMS_P1;PMS_P2;Temp;Humidity;BMP_temperature;BMP_pressure;BME280_temperature;BME280_humidity;BME280_pressure;Samples;Min_cycle;Max_cycle;Signal;HPM_P1;HPM_P2
2023/04/20 00:02:21;;;;;;;2.40;1.17;;;10.90;57.60;;;;;;2395820;57;21071;-73
2023/04/20 00:04:47;;;;;;;3.00;1.40;;;10.90;57.70;;;;;;2183614;58;21055;-75
2023/04/20 00:07:17;;;;;;;3.17;1.08;;;10.80;57.60;;;;;;2182249;58;21297;-75
2023/04/20 00:09:43;;;;;;;2.80;1.42;;;10.80;57.50;;;;;;2183505;58;20991;-75
2023/04/20 00:12:09;;;;;;;2.20;1.12;;;10.70;57.50;;;;;;2177160;57;20961;-73
2023/04/20 00:14:36;;;;;;;2.95;1.40;;;10.70;57.50;;;;;;2183768;58;21042;-73
2023/04/20 00:17:02;;;;;;;2.85;1.30;;;10.60;57.50;;;;;;2395621;57;21464;-74
2023/04/20 00:19:32;;;;;;;3.10;1.40;;;10.60;57.50;;;;;;2182310;58;20967;-75
2023/04/20 00:21:58;;;;;;;2.53;1.40;;;10.50;57.50;;;;;;2182820;58;21022;-74
2023/04/20 00:24:27;;;;;;;2.67;1.37;;;10.50;57.50;;;;;;2183539;58;21015;-73
2023/04/20 00:26:54;;;;;;;2.97;1.30;;;10.40;57.50;;;;;;2184474;58;20980;-73
2023/04/20 00:29:21;;;;;;;2.42;1.20;;;10.40;57.50;;;;;;2181512;58;21871;-73
2023/04/20 00:31:48;;;;;;;2.03;0.95;;;10.30;57.50;;;;;;2181282;57;20991;-74
2023/04/20 00:34:15;;;;;;;2.97;1.20;;;10.30;57.40;;;;;;2391256;57;21010;-73
2023/04/20 00:36:41;;;;;;;2.67;1.20;;;10.20;57.40;;;;;;2396154;57;20967;-75
2023/04/20 00:39:07;;;;;;;1.98;0.93;;;10.10;57.40;;;;;;2183511;58;20967;-75
2023/04/20 00:41:34;;;;;;;3.17;1.20;;;10.10;57.50;;;;;;2177808;57;21035;-73
2023/04/20 00:44:01;;;;;;;2.47;1.05;;;10.00;57.50;;;;;;2386449;57;21874;-75
2023/04/20 00:46:31;;;;;;;4.10;1.40;;;10.00;57.50;;;;;;2394685;57;20947;-75
2023/04/20 00:48:57;;;;;;;2.80;1.27;;;9.90;58.30;;;;;;2185215;58;21067;-74
2023/04/20 00:51:24;;;;;;;2.10;1.10;;;9.80;58.30;;;;;;2396154;57;20963;-73
2023/04/20 00:53:51;;;;;;;2.47;1.20;;;9.80;58.30;;;;;;2184179;58;21378;-72
2023/04/20 00:56:18;;;;;;;2.42;1.10;;;9.70;58.20;;;;;;2396065;57;21051;-73
2023/04/20 00:58:45;;;;;;;2.55;1.15;;;9.70;58.20;;;;;;2396290;57;20995;-73
2023/04/20 01:01:11;;;;;;;2.83;1.40;;;9.60;58.30;;;;;;2184031;57;21393;-73
2023/04/20 01:03:39;;;;;;;2.90;1.20;;;9.60;58.40;;;;;;2396540;57;20927;-74
2023/04/20 01:06:12;;;;;;;2.30;1.12;;;9.50;58.30;;;;;;2183917;58;21799;-73
2023/04/20 01:08:50;;;;;;;2.47;1.20;;;9.50;58.30;;;;;;2178419;57;21082;-74
2023/04/20 01:11:17;;;;;;;2.78;1.10;;;9.40;58.10;;;;;;2394299;57;21032;-74
2023/04/20 01:13:43;;;;;;;2.70;1.23;;;9.30;58.30;;;;;;2182293;58;21026;-72
2023/04/20 01:16:10;;;;;;;3.60;1.62;;;9.30;58.30;;;;;;2391579;57;21073;-72
2023/04/20 01:18:47;;;;;;;2.80;1.30;;;9.20;58.30;;;;;;2390509;57;21046;-74
2023/04/20 01:21:15;;;;;;;5.65;1.67;;;9.20;58.30;;;;;;2183124;58;21082;-73
2023/04/20 01:23:41;;;;;;;5.12;1.30;;;9.20;58.40;;;;;;2184127;58;20979;-74
2023/04/20 01:26:09;;;;;;;2.92;1.30;;;9.00;58.20;;;;;;2181005;57;21467;-75
2023/04/20 01:28:35;;;;;;;3.28;1.65;;;9.00;58.30;;;;;;2178729;57;20961;-75
2023/04/20 01:31:02;;;;;;;3.47;1.37;;;8.90;58.20;;;;;;2390301;57;20974;-72
2023/04/20 01:33:29;;;;;;;3.78;1.83;;;8.80;58.30;;;;;;2185784;58;21491;-74
2023/04/20 01:35:56;;;;;;;3.95;1.73;;;8.80;58.40;;;;;;2386684;57;20994;-73
2023/04/20 01:38:22;;;;;;;3.72;1.87;;;8.70;58.40;;;;;;2395996;57;20962;-73
2023/04/20 01:40:49;;;;;;;2.72;1.37;;;8.70;58.40;;;;;;2183520;58;21090;-74
2023/04/20 01:43:15;;;;;;;3.00;1.20;;;8.60;58.40;;;;;;2183805;58;20947;-72
2023/04/20 01:45:42;;;;;;;2.35;1.08;;;8.50;58.90;;;;;;2396388;57;21015;-73
2023/04/20 01:48:08;;;;;;;2.70;1.05;;;8.50;58.40;;;;;;2396220;57;21011;-73
2023/04/20 01:50:36;;;;;;;4.15;1.20;;;8.50;58.40;;;;;;2395998;57;20987;-72
2023/04/20 01:53:02;;;;;;;3.30;1.20;;;8.40;58.40;;;;;;2184246;58;20983;-72
2023/04/20 01:55:33;;;;;;;2.97;1.35;;;8.40;58.50;;;;;;2392083;57;21001;-74
2023/04/20 01:58:03;;;;;;;3.33;1.50;;;8.40;58.60;;;;;;2391033;57;20984;-73
2023/04/20 02:00:29;;;;;;;9.52;3.50;;;8.30;58.50;;;;;;2397213;57;20963;-76
2023/04/20 02:02:56;;;;;;;17.10;6.43;;;8.20;58.40;;;;;;2184838;58;20983;-73
2023/04/20 02:05:23;;;;;;;19.10;6.90;;;8.20;58.50;;;;;;2397530;57;20998;-74
2023/04/20 02:07:50;;;;;;;21.37;7.15;;;8.10;58.50;;;;;;2392503;57;20977;-75
2023/04/20 02:10:16;;;;;;;15.65;6.50;;;8.10;58.60;;;;;;2393529;57;20955;-72
2023/04/20 02:12:42;;;;;;;13.98;5.07;;;8.10;58.60;;;;;;2186114;58;20943;-73
2023/04/20 02:15:09;;;;;;;11.15;4.05;;;8.00;58.50;;;;;;2185743;58;21135;-72
2023/04/20 02:17:35;;;;;;;7.57;3.10;;;8.00;58.50;;;;;;2185564;58;21570;-73
2023/04/20 02:20:06;;;;;;;7.72;2.83;;;8.00;58.60;;;;;;2180836;57;20999;-72
2023/04/20 02:22:33;;;;;;;7.18;2.53;;;7.90;58.50;;;;;;2397953;57;20943;-73
2023/04/20 02:25:00;;;;;;;4.72;2.12;;;7.90;58.50;;;;;;2185103;58;21031;-74
2023/04/20 02:27:27;;;;;;;4.55;1.77;;;7.80;58.50;;;;;;2184865;58;21424;-74
2023/04/20 02:29:53;;;;;;;3.47;1.40;;;7.80;59.10;;;;;;2185499;57;21080;-73
2023/04/20 02:32:20;;;;;;;3.97;1.33;;;7.70;58.40;;;;;;2390526;57;21126;-72
2023/04/20 02:34:46;;;;;;;3.28;1.52;;;7.70;58.60;;;;;;2184284;58;20981;-72
2023/04/20 02:37:12;;;;;;;3.00;1.40;;;7.70;58.60;;;;;;2183167;57;21068;-72
2023/04/20 02:39:39;;;;;;;3.03;1.50;;;7.70;58.70;;;;;;2180659;57;21136;-73
2023/04/20 02:42:05;;;;;;;3.28;1.60;;;7.60;58.70;;;;;;2397891;57;21469;-75
2023/04/20 02:44:34;;;;;;;5.15;1.60;;;7.60;58.80;;;;;;2182577;57;20985;-74
2023/04/20 02:47:00;;;;;;;3.12;1.45;;;7.60;58.80;;;;;;2181352;57;20999;-75
2023/04/20 02:49:26;;;;;;;3.25;1.45;;;7.50;58.80;;;;;;2177539;57;21033;-72
2023/04/20 02:51:53;;;;;;;5.85;1.77;;;7.50;58.80;;;;;;2396199;57;21103;-72
2023/04/20 02:54:21;;;;;;;3.53;1.80;;;7.50;58.90;;;;;;2183482;58;21035;-73
2023/04/20 02:56:47;;;;;;;3.45;1.70;;;7.50;58.90;;;;;;2395817;57;21050;-72
2023/04/20 02:59:14;;;;;;;3.60;1.58;;;7.40;58.90;;;;;;2395669;57;20987;-73
2023/04/20 03:01:40;;;;;;;3.45;1.58;;;7.40;58.90;;;;;;2386166;57;20950;-72
2023/04/20 03:04:07;;;;;;;3.78;1.85;;;7.40;58.90;;;;;;2395275;57;20990;-73
2023/04/20 03:06:35;;;;;;;4.05;1.70;;;7.40;58.90;;;;;;2183259;58;20983;-75
2023/04/20 03:09:02;;;;;;;3.15;1.50;;;7.30;58.90;;;;;;2396610;57;21373;-74
2023/04/20 03:11:29;;;;;;;2.58;1.40;;;7.30;58.90;;;;;;2396021;57;21024;-72
2023/04/20 03:13:56;;;;;;;3.30;1.52;;;7.20;58.80;;;;;;2393380;57;21062;-72
2023/04/20 03:16:22;;;;;;;4.20;1.73;;;7.20;58.80;;;;;;2177799;57;21054;-71
2023/04/20 03:18:49;;;;;;;3.75;1.80;;;7.20;58.80;;;;;;2396412;57;21024;-75
2023/04/20 03:21:16;;;;;;;3.90;1.67;;;7.10;58.80;;;;;;2395910;57;21555;-74
2023/04/20 03:23:42;;;;;;;3.58;1.40;;;7.10;58.80;;;;;;2183268;58;21083;-73
2023/04/20 03:26:09;;;;;;;2.78;1.37;;;7.10;58.90;;;;;;2184086;58;21039;-73
2023/04/20 03:28:35;;;;;;;3.97;1.80;;;7.10;58.90;;;;;;2396690;57;21070;-72
2023/04/20 03:31:01;;;;;;;4.20;1.83;;;7.00;58.80;;;;;;2396313;57;21031;-73
2023/04/20 03:33:28;;;;;;;3.08;1.52;;;7.00;58.80;;;;;;2185228;58;20967;-74
2023/04/20 03:35:56;;;;;;;4.00;1.52;;;6.90;58.80;;;;;;2396733;57;20983;-74
2023/04/20 03:38:25;;;;;;;3.22;1.52;;;6.90;58.90;;;;;;2397440;57;20986;-72
2023/04/20 03:40:51;;;;;;;2.83;1.20;;;6.90;58.90;;;;;;2397044;57;21055;-73
2023/04/20 03:43:18;;;;;;;3.92;1.58;;;6.80;58.80;;;;;;2397619;57;21059;-74
2023/04/20 03:45:44;;;;;;;3.40;1.55;;;6.80;58.80;;;;;;2397824;57;20975;-73
2023/04/20 03:48:11;;;;;;;2.80;1.50;;;6.80;58.80;;;;;;2398052;57;21012;-73
2023/04/20 03:50:37;;;;;;;3.85;1.58;;;6.70;58.80;;;;;;2185120;58;21785;-75
2023/04/20 03:53:03;;;;;;;3.47;1.77;;;6.70;58.90;;;;;;2397434;57;21448;-71
2023/04/20 03:55:30;;;;;;;4.03;2.20;;;6.70;58.90;;;;;;2179666;57;21482;-72
2023/04/20 03:57:56;;;;;;;4.50;1.90;;;6.60;58.90;;;;;;2188324;57;21030;-72
2023/04/20 04:00:23;;;;;;;3.67;2.00;;;6.60;58.90;;;;;;2179767;57;20991;-73
2023/04/20 04:02:49;;;;;;;4.05;2.08;;;6.60;59.10;;;;;;2397693;57;21583;-72
2023/04/20 04:05:16;;;;;;;4.80;1.90;;;6.60;59.20;;;;;;2185970;58;20970;-74
2023/04/20 04:07:42;;;;;;;4.15;1.98;;;6.60;59.20;;;;;;2185143;58;21042;-74
2023/04/20 04:10:12;;;;;;;3.33;1.85;;;6.50;59.20;;;;;;2185110;58;20947;-72
2023/04/20 04:12:39;;;;;;;3.15;1.60;;;6.50;59.20;;;;;;2185251;58;20991;-72
2023/04/20 04:15:06;;;;;;;3.10;1.40;;;6.50;59.10;;;;;;2184501;58;21875;-73
2023/04/20 04:17:33;;;;;;;3.10;1.52;;;6.50;59.10;;;;;;2396670;57;21856;-75
2023/04/20 04:19:59;;;;;;;3.37;1.80;;;6.50;59.10;;;;;;2184871;58;20970;-73
2023/04/20 04:22:25;;;;;;;3.58;1.80;;;6.50;59.20;;;;;;2397176;57;21087;-73
2023/04/20 04:24:53;;;;;;;3.25;1.65;;;6.40;59.10;;;;;;2397374;57;20972;-72
2023/04/20 04:27:21;;;;;;;4.15;1.80;;;6.40;59.10;;;;;;2397032;57;21015;-72
2023/04/20 04:29:49;;;;;;;6.03;2.25;;;6.40;59.10;;;;;;2396124;57;20999;-74
2023/04/20 04:32:15;;;;;;;3.95;1.77;;;6.40;59.10;;;;;;2387418;57;21024;-73
2023/04/20 04:34:45;;;;;;;3.20;1.75;;;6.30;59.10;;;;;;2184356;57;20998;-73
2023/04/20 04:37:11;;;;;;;4.00;1.87;;;6.30;59.10;;;;;;2184216;58;21479;-73
2023/04/20 04:39:40;;;;;;;5.18;2.53;;;6.30;59.10;;;;;;2387357;57;21024;-74
2023/04/20 04:42:07;;;;;;;4.18;1.95;;;6.30;59.10;;;;;;2390089;57;21785;-72
2023/04/20 04:44:33;;;;;;;4.40;2.35;;;6.20;59.20;;;;;;2392739;57;21463;-75
2023/04/20 04:47:02;;;;;;;4.05;2.05;;;6.20;59.20;;;;;;2397031;57;20967;-73
2023/04/20 04:49:28;;;;;;;3.70;1.77;;;6.20;59.20;;;;;;2184026;58;21002;-74
2023/04/20 04:51:57;;;;;;;4.72;2.25;;;6.20;59.20;;;;;;2397104;57;20974;-72
2023/04/20 04:54:24;;;;;;;3.92;2.12;;;6.20;59.20;;;;;;2396458;57;20964;-73
2023/04/20 04:56:51;;;;;;;4.45;2.22;;;6.10;59.30;;;;;;2188470;58;21008;-74
2023/04/20 04:59:17;;;;;;;4.00;2.00;;;6.10;59.30;;;;;;2183305;57;21055;-73
2023/04/20 05:01:47;;;;;;;5.28;2.20;;;6.10;59.40;;;;;;2387017;57;21132;-72
2023/04/20 05:04:16;;;;;;;4.65;2.33;;;6.10;59.40;;;;;;2394194;57;21054;-72
2023/04/20 05:06:48;;;;;;;5.32;2.55;;;6.10;59.40;;;;;;2183909;58;21050;-72
2023/04/20 05:09:15;;;;;;;4.53;2.45;;;6.10;59.40;;;;;;2184151;58;21829;-71
2023/04/20 05:11:41;;;;;;;4.35;1.95;;;6.10;59.40;;;;;;2390321;57;21024;-73
2023/04/20 05:14:07;;;;;;;3.67;1.80;;;6.10;59.50;;;;;;2392846;57;20936;-74
2023/04/20 05:16:36;;;;;;;4.43;2.30;;;6.00;59.40;;;;;;2395696;57;20939;-72
2023/04/20 05:19:02;;;;;;;3.60;1.90;;;6.00;59.50;;;;;;2184054;58;21008;-73
2023/04/20 05:21:32;;;;;;;5.60;2.08;;;6.00;59.50;;;;;;2396035;57;20979;-72
2023/04/20 05:23:58;;;;;;;4.18;1.98;;;6.00;59.50;;;;;;2185518;58;21970;-73
2023/04/20 05:26:25;;;;;;;4.85;2.35;;;6.00;59.50;;;;;;2396732;57;21032;-72
2023/04/20 05:28:52;;;;;;;3.65;2.15;;;6.00;59.60;;;;;;2179399;57;20992;-75
2023/04/20 05:31:20;;;;;;;5.32;2.20;;;6.00;59.60;;;;;;2396457;57;20995;-73
2023/04/20 05:33:47;;;;;;;5.28;2.20;;;6.00;59.60;;;;;;2397441;57;21043;-72
2023/04/20 05:36:13;;;;;;;4.22;2.30;;;6.00;59.80;;;;;;2396841;57;20979;-72
2023/04/20 05:38:39;;;;;;;5.03;2.70;;;6.00;59.80;;;;;;2179385;57;21137;-74
2023/04/20 05:41:06;;;;;;;6.43;3.62;;;6.00;59.90;;;;;;2184393;58;21080;-73
2023/04/20 05:43:32;;;;;;;6.40;3.28;;;6.00;60.00;;;;;;2184452;58;20955;-72
2023/04/20 05:45:58;;;;;;;7.25;3.90;;;6.00;60.20;;;;;;2397270;57;20974;-75
2023/04/20 05:48:28;;;;;;;5.45;3.33;;;6.00;60.50;;;;;;2396988;57;21035;-73
2023/04/20 05:50:55;;;;;;;9.00;4.28;;;6.10;60.80;;;;;;2184363;59;20963;-73
2023/04/20 05:53:26;;;;;;;6.97;3.60;;;6.10;60.90;;;;;;2184920;58;21051;-73
2023/04/20 05:55:53;;;;;;;5.93;3.55;;;6.10;61.10;;;;;;2396660;57;21439;-73
2023/04/20 05:58:19;;;;;;;5.97;3.55;;;6.20;61.20;;;;;;2184563;58;20975;-74
2023/04/20 06:00:46;;;;;;;5.12;3.40;;;6.30;61.30;;;;;;2396768;57;21055;-74
2023/04/20 06:03:16;;;;;;;6.07;3.30;;;6.30;61.40;;;;;;2184319;58;21012;-73
2023/04/20 06:05:42;;;;;;;6.12;3.10;;;6.40;61.50;;;;;;2396697;57;20971;-72
2023/04/20 06:08:08;;;;;;;5.95;2.87;;;6.40;61.60;;;;;;2396587;57;21411;-74
2023/04/20 06:10:35;;;;;;;5.20;2.85;;;6.50;61.70;;;;;;2183731;58;21824;-75
2023/04/20 06:13:01;;;;;;;6.03;3.20;;;6.60;61.70;;;;;;2183794;58;20975;-74
2023/04/20 06:15:27;;;;;;;5.30;2.80;;;6.60;61.70;;;;;;2391796;57;21001;-74
2023/04/20 06:17:55;;;;;;;5.12;2.62;;;6.70;61.80;;;;;;2180040;57;20959;-73
2023/04/20 06:20:22;;;;;;;5.15;2.95;;;6.70;61.80;;;;;;2395997;57;21032;-74
2023/04/20 06:22:50;;;;;;;3.95;2.20;;;6.80;61.80;;;;;;2184419;58;21011;-75
2023/04/20 06:25:17;;;;;;;4.82;2.30;;;6.90;61.80;;;;;;2395147;57;20942;-73
2023/04/20 06:27:50;;;;;;;5.68;2.67;;;6.90;61.80;;;;;;2396308;57;21039;-74
2023/04/20 06:30:19;;;;;;;5.57;3.00;;;7.00;61.90;;;;;;2183287;58;21015;-73
2023/04/20 06:32:46;;;;;;;7.30;3.40;;;7.10;62.00;;;;;;2396207;57;20947;-74
2023/04/20 06:35:15;;;;;;;4.22;2.60;;;7.10;62.00;;;;;;2183763;58;21086;-74
2023/04/20 06:37:41;;;;;;;4.95;2.33;;;7.20;62.10;;;;;;2395579;57;21015;-74
2023/04/20 06:40:09;;;;;;;4.50;2.35;;;7.30;62.10;;;;;;2385398;57;21461;-76
2023/04/20 06:42:36;;;;;;;5.18;2.50;;;7.40;62.20;;;;;;2394977;57;21898;-75
2023/04/20 06:45:03;;;;;;;3.95;2.40;;;7.40;62.10;;;;;;2182142;58;21030;-74
2023/04/20 06:47:32;;;;;;;4.07;2.47;;;7.50;62.20;;;;;;2393292;57;21033;-74
2023/04/20 06:49:59;;;;;;;5.47;2.75;;;7.50;62.10;;;;;;2177472;57;21293;-75
2023/04/20 06:52:26;;;;;;;7.35;3.17;;;7.60;62.20;;;;;;2391210;57;21027;-75
2023/04/20 06:54:52;;;;;;;4.72;2.92;;;7.70;62.20;;;;;;2183055;58;21050;-75
2023/04/20 06:57:19;;;;;;;4.80;2.70;;;7.70;62.20;;;;;;2179211;57;20992;-74
2023/04/20 06:59:46;;;;;;;5.05;2.75;;;7.80;62.40;;;;;;2182447;57;20983;-75
2023/04/20 07:02:12;;;;;;;4.50;2.72;;;7.90;62.40;;;;;;2184553;58;21007;-74
2023/04/20 07:04:41;;;;;;;4.85;2.55;;;8.00;62.60;;;;;;2395659;57;21532;-76
2023/04/20 07:07:07;;;;;;;6.03;2.97;;;8.10;62.80;;;;;;2183794;58;20951;-74
2023/04/20 07:09:35;;;;;;;4.53;2.58;;;8.10;62.90;;;;;;2395309;57;21776;-74
2023/04/20 07:12:01;;;;;;;5.30;3.22;;;8.30;63.60;;;;;;2183156;57;21044;-75
2023/04/20 07:14:28;;;;;;;6.62;3.72;;;8.30;63.80;;;;;;2390137;57;21035;-77
2023/04/20 07:16:55;;;;;;;5.68;3.53;;;8.50;64.60;;;;;;2178685;57;21001;-74
2023/04/20 07:19:21;;;;;;;5.75;3.58;;;8.70;65.30;;;;;;2183402;58;20995;-77
2023/04/20 07:21:47;;;;;;;6.03;3.92;;;8.80;65.50;;;;;;2390411;57;20997;-75
2023/04/20 07:24:14;;;;;;;6.20;3.62;;;9.00;65.60;;;;;;2391655;57;20983;-76
2023/04/20 07:26:40;;;;;;;4.87;3.15;;;9.20;65.90;;;;;;2395838;57;20959;-75
2023/04/20 07:29:06;;;;;;;5.50;3.20;;;9.40;66.00;;;;;;2396073;57;21064;-76
2023/04/20 07:31:33;;;;;;;6.43;4.05;;;9.60;66.30;;;;;;2395453;57;21488;-77
2023/04/20 07:34:00;;;;;;;6.28;3.85;;;9.90;66.60;;;;;;2396404;57;21031;-77
2023/04/20 07:36:27;;;;;;;5.12;3.22;;;10.10;65.60;;;;;;2396511;57;20991;-76
2023/04/20 07:38:54;;;;;;;5.93;3.35;;;10.30;65.50;;;;;;2396188;57;21511;-76
2023/04/20 07:41:21;;;;;;;5.43;3.22;;;10.60;65.40;;;;;;2183432;58;21098;-75
2023/04/20 07:43:48;;;;;;;7.72;3.28;;;10.80;65.10;;;;;;2395817;57;22029;-75
2023/04/20 07:46:21;;;;;;;6.32;3.10;;;10.90;65.00;;;;;;2178496;57;21487;-78
2023/04/20 07:48:50;;;;;;;6.43;3.17;;;11.10;64.60;;;;;;2396006;57;21086;-75
2023/04/20 07:51:16;;;;;;;4.68;2.75;;;11.30;64.50;;;;;;2183470;57;21049;-75
2023/04/20 07:53:44;;;;;;;6.15;2.78;;;11.50;64.10;;;;;;2388322;57;21063;-75
2023/04/20 07:56:11;;;;;;;4.20;2.70;;;11.60;63.60;;;;;;2396403;57;20971;-78
2023/04/20 07:58:39;;;;;;;6.78;3.10;;;11.70;63.30;;;;;;2395701;57;20979;-75
2023/04/20 08:01:06;;;;;;;5.10;3.10;;;11.80;63.10;;;;;;2396177;57;20979;-77
2023/04/20 08:03:32;;;;;;;8.30;3.50;;;11.90;62.90;;;;;;2183321;58;20970;-76
2023/04/20 08:05:59;;;;;;;4.82;2.90;;;12.00;62.60;;;;;;2183607;58;20983;-75
2023/04/20 08:08:25;;;;;;;4.40;2.62;;;12.00;62.20;;;;;;2395257;57;21030;-76
2023/04/20 08:10:51;;;;;;;6.47;3.22;;;12.10;62.00;;;;;;2395865;57;21074;-75
2023/04/20 08:13:18;;;;;;;5.37;3.05;;;12.10;61.90;;;;;;2182959;58;20975;-78
2023/04/20 08:15:44;;;;;;;5.78;3.33;;;12.10;61.90;;;;;;2183352;58;20971;-77
2023/04/20 08:18:10;;;;;;;6.18;3.62;;;12.20;61.80;;;;;;2395612;57;21024;-76
2023/04/20 08:20:37;;;;;;;5.40;3.28;;;12.20;61.60;;;;;;2395881;57;20963;-75
2023/04/20 08:23:03;;;;;;;4.90;3.37;;;12.30;61.50;;;;;;2183887;58;20999;-75
2023/04/20 08:25:31;;;;;;;4.95;3.15;;;12.30;61.40;;;;;;2394595;57;22052;-76
2023/04/20 08:27:57;;;;;;;5.47;2.97;;;12.40;61.30;;;;;;2184989;58;20951;-75
2023/04/20 08:30:25;;;;;;;5.20;3.35;;;12.40;61.30;;;;;;2385831;57;21023;-76
2023/04/20 08:32:52;;;;;;;4.97;3.33;;;12.40;61.20;;;;;;2182845;58;20966;-75
2023/04/20 08:35:20;;;;;;;5.32;3.17;;;12.50;61.30;;;;;;2182813;58;20986;-74
2023/04/20 08:37:47;;;;;;;5.80;3.30;;;12.50;61.20;;;;;;2395494;57;21099;-77
2023/04/20 08:40:13;;;;;;;4.97;3.20;;;12.50;61.20;;;;;;2388584;57;20988;-74
2023/04/20 08:42:39;;;;;;;8.25;3.97;;;12.60;61.30;;;;;;2177458;57;21388;-78
2023/04/20 08:45:06;;;;;;;8.20;4.47;;;12.70;61.50;;;;;;2182857;58;20971;-74
2023/04/20 08:47:34;;;;;;;4.97;3.00;;;12.70;61.60;;;;;;2183139;58;21539;-74
2023/04/20 08:50:00;;;;;;;4.25;2.83;;;12.80;61.70;;;;;;2395798;57;21079;-74
2023/04/20 08:52:27;;;;;;;5.60;3.58;;;12.90;61.70;;;;;;2182950;58;21489;-75
2023/04/20 08:54:53;;;;;;;5.32;3.53;;;12.90;61.70;;;;;;2395870;57;20979;-74
2023/04/20 08:57:22;;;;;;;5.05;2.97;;;13.00;61.80;;;;;;2395640;57;21071;-74
2023/04/20 08:59:48;;;;;;;12.00;3.33;;;13.10;61.80;;;;;;2395973;57;22059;-74
2023/04/20 09:02:15;;;;;;;7.18;3.20;;;13.10;61.70;;;;;;2183091;58;21738;-74
2023/04/20 09:04:47;;;;;;;5.12;2.80;;;13.20;61.60;;;;;;2183326;58;21508;-73
2023/04/20 09:07:20;;;;;;;5.47;3.00;;;13.20;61.50;;;;;;2183499;58;20970;-74
2023/04/20 09:09:55;;;;;;;6.18;3.65;;;13.30;61.10;;;;;;2183060;58;21022;-74
2023/04/20 09:12:23;;;;;;;4.97;3.00;;;13.40;61.00;;;;;;2395235;57;20970;-74
2023/04/20 09:14:49;;;;;;;6.22;3.62;;;13.40;61.40;;;;;;2395427;57;21046;-73
2023/04/20 09:17:16;;;;;;;5.25;3.30;;;13.50;61.30;;;;;;2394698;57;21254;-73
2023/04/20 09:19:43;;;;;;;6.37;3.45;;;13.50;60.90;;;;;;2176591;58;20979;-74
2023/04/20 09:22:12;;;;;;;6.60;4.12;;;13.50;60.80;;;;;;2395220;57;21027;-74
2023/04/20 09:24:38;;;;;;;6.32;3.85;;;13.60;60.90;;;;;;2183033;58;20979;-74
2023/04/20 09:27:14;;;;;;;6.57;3.58;;;13.60;60.70;;;;;;2178187;57;20993;-75
2023/04/20 09:29:40;;;;;;;5.95;3.58;;;13.70;60.10;;;;;;2395148;57;21063;-74
2023/04/20 09:32:19;;;;;;;5.93;3.47;;;13.70;60.60;;;;;;2395648;57;21006;-74
2023/04/20 09:34:46;;;;;;;4.93;3.37;;;13.80;60.70;;;;;;2395307;57;20978;-75
2023/04/20 09:37:17;;;;;;;4.80;3.00;;;13.80;60.70;;;;;;2396016;57;20986;-74
2023/04/20 09:39:44;;;;;;;7.07;3.03;;;13.90;60.20;;;;;;2395972;57;20990;-73
2023/04/20 09:42:11;;;;;;;6.65;3.03;;;13.90;60.00;;;;;;2182015;58;21048;-75
2023/04/20 09:44:39;;;;;;;5.72;3.30;;;14.00;59.80;;;;;;2183274;58;21055;-74
2023/04/20 09:47:07;;;;;;;6.03;3.70;;;14.00;59.50;;;;;;2183756;58;21039;-74
2023/04/20 09:49:35;;;;;;;5.25;3.20;;;14.10;59.40;;;;;;2395604;57;21009;-73
2023/04/20 09:52:01;;;;;;;6.72;3.67;;;14.10;59.30;;;;;;2183444;57;21973;-74
2023/04/20 09:54:28;;;;;;;5.53;3.28;;;14.10;59.10;;;;;;2177962;57;21820;-73
2023/04/20 09:56:55;;;;;;;4.22;2.83;;;14.10;59.10;;;;;;2395528;57;20983;-75
2023/04/20 09:59:25;;;;;;;5.15;3.30;;;14.10;59.20;;;;;;2395398;57;20975;-75
2023/04/20 10:01:52;;;;;;;5.62;3.20;;;14.20;59.30;;;;;;2322680;57;1424480;-73
2023/04/20 10:04:18;;;;;;;6.00;3.40;;;14.20;59.30;;;;;;2182782;58;20997;-75
2023/04/20 10:06:54;;;;;;;6.32;3.90;;;14.30;59.30;;;;;;2182808;58;21011;-75
2023/04/20 10:09:27;;;;;;;4.75;3.25;;;14.30;59.10;;;;;;2395141;57;20975;-74
2023/04/20 10:12:04;;;;;;;5.05;3.25;;;14.30;59.20;;;;;;2183502;58;20990;-74
2023/04/20 10:14:31;;;;;;;5.22;3.37;;;14.40;58.80;;;;;;2182517;58;21079;-75
2023/04/20 10:17:05;;;;;;;4.90;2.85;;;14.40;59.10;;;;;;2395857;57;20947;-75
2023/04/20 10:19:38;;;;;;;5.75;3.45;;;14.40;59.00;;;;;;2394222;57;20960;-74
2023/04/20 10:22:05;;;;;;;5.35;3.20;;;14.50;58.90;;;;;;2395562;57;22243;-75
2023/04/20 10:24:31;;;;;;;4.53;2.85;;;14.50;59.10;;;;;;2184285;58;21019;-75
2023/04/20 10:26:58;;;;;;;5.12;3.30;;;14.50;59.00;;;;;;2384885;57;21033;-74
2023/04/20 10:29:27;;;;;;;4.45;3.08;;;14.50;59.10;;;;;;2393696;57;21031;-76
2023/04/20 10:31:54;;;;;;;6.20;3.10;;;14.50;59.00;;;;;;2176734;58;20986;-75
2023/04/20 10:34:33;;;;;;;5.10;3.05;;;14.60;59.20;;;;;;2173496;59;21912;-76
2023/04/20 10:37:12;;;;;;;5.05;3.10;;;14.60;59.00;;;;;;2184743;58;20983;-75
2023/04/20 10:39:48;;;;;;;4.85;3.28;;;14.70;58.90;;;;;;2185295;58;21082;-76
2023/04/20 10:42:14;;;;;;;7.65;3.55;;;14.70;58.60;;;;;;2395369;57;20963;-75
2023/04/20 10:44:49;;;;;;;5.20;3.03;;;14.70;58.80;;;;;;2388096;57;21008;-75
2023/04/20 10:47:24;;;;;;;4.87;2.97;;;14.70;58.50;;;;;;2392363;57;20963;-75
2023/04/20 10:49:51;;;;;;;5.12;2.90;;;14.70;58.70;;;;;;2395387;57;21423;-75
2023/04/20 10:52:17;;;;;;;4.53;2.53;;;14.60;58.60;;;;;;2183307;58;21051;-74
2023/04/20 10:54:46;;;;;;;3.92;2.50;;;14.70;58.70;;;;;;2183256;58;20947;-76
2023/04/20 10:57:15;;;;;;;3.97;2.53;;;14.70;58.80;;;;;;2392321;57;21040;-74
2023/04/20 10:59:41;;;;;;;6.25;3.25;;;14.70;58.90;;;;;;2183268;58;20979;-75
2023/04/20 11:02:11;;;;;;;6.00;3.12;;;14.70;59.00;;;;;;2182864;58;20995;-73
2023/04/20 11:04:39;;;;;;;3.87;2.42;;;14.70;59.00;;;;;;2395056;57;20991;-73
2023/04/20 11:07:07;;;;;;;5.65;3.33;;;14.80;59.00;;;;;;2182177;57;21477;-75
2023/04/20 11:09:34;;;;;;;4.62;2.90;;;14.90;59.20;;;;;;2391063;57;20968;-75
2023/04/20 11:12:10;;;;;;;5.60;3.80;;;14.90;59.20;;;;;;2183206;57;20974;-76
2023/04/20 11:14:38;;;;;;;5.90;3.78;;;15.00;59.20;;;;;;2393953;57;20987;-74
2023/04/20 11:17:05;;;;;;;5.80;3.40;;;14.90;59.00;;;;;;2395385;57;20951;-74
2023/04/20 11:19:33;;;;;;;4.93;3.25;;;15.10;59.20;;;;;;2182756;58;21091;-74
2023/04/20 11:22:01;;;;;;;5.60;3.55;;;15.20;59.10;;;;;;2183130;58;20987;-74
2023/04/20 11:24:29;;;;;;;5.15;3.25;;;15.20;59.00;;;;;;2394262;57;21011;-74
2023/04/20 11:26:57;;;;;;;6.12;2.72;;;15.30;58.70;;;;;;2395242;57;20987;-74
2023/04/20 11:29:32;;;;;;;4.30;2.67;;;15.40;58.60;;;;;;2182632;58;20983;-74
2023/04/20 11:32:05;;;;;;;4.95;3.10;;;15.40;58.20;;;;;;2395165;57;21483;-75
2023/04/20 11:34:32;;;;;;;4.95;3.05;;;15.40;58.30;;;;;;2181985;58;21531;-76
2023/04/20 11:37:12;;;;;;;4.15;2.62;;;15.40;58.00;;;;;;2394062;57;20963;-75
2023/04/20 11:39:39;;;;;;;4.12;2.53;;;15.40;57.20;;;;;;2182934;58;21503;-74
2023/04/20 11:42:05;;;;;;;5.20;3.20;;;15.40;57.60;;;;;;2394621;57;21311;-74
2023/04/20 11:44:32;;;;;;;4.93;2.90;;;15.40;57.40;;;;;;2394168;57;20963;-74
2023/04/20 11:46:59;;;;;;;4.15;2.72;;;15.40;57.40;;;;;;2394424;57;20969;-74
2023/04/20 11:49:31;;;;;;;5.30;2.97;;;15.40;57.40;;;;;;2182668;58;21126;-74
2023/04/20 11:51:57;;;;;;;4.78;3.05;;;15.40;57.40;;;;;;2395253;57;21019;-73
2023/04/20 11:54:27;;;;;;;4.30;2.55;;;15.40;57.50;;;;;;2182190;58;21003;-75
2023/04/20 11:56:53;;;;;;;4.90;2.97;;;15.40;58.10;;;;;;2394893;57;21887;-74
2023/04/20 11:59:19;;;;;;;5.57;2.67;;;15.40;57.50;;;;;;2182714;58;20975;-75
2023/04/20 12:01:49;;;;;;;5.85;3.37;;;15.40;57.50;;;;;;2394569;57;21067;-74
2023/04/20 12:04:15;;;;;;;5.32;2.72;;;15.40;57.40;;;;;;2183041;58;20971;-74
2023/04/20 12:06:42;;;;;;;4.50;2.70;;;15.40;57.30;;;;;;2393786;57;21022;-75
2023/04/20 12:09:13;;;;;;;4.50;2.58;;;15.50;57.40;;;;;;2182688;57;20964;-75
2023/04/20 12:11:39;;;;;;;5.62;3.05;;;15.40;57.00;;;;;;2176413;57;21043;-75
2023/04/20 12:14:06;;;;;;;4.65;2.70;;;15.50;57.30;;;;;;2394686;57;20994;-74
2023/04/20 12:16:33;;;;;;;4.45;2.67;;;15.50;57.10;;;;;;2182408;58;20971;-75
2023/04/20 12:19:02;;;;;;;3.60;2.22;;;15.50;57.00;;;;;;2389668;57;21038;-74
2023/04/20 12:21:29;;;;;;;4.25;2.40;;;15.50;57.00;;;;;;2179109;57;21028;-74
2023/04/20 12:23:56;;;;;;;4.85;2.40;;;15.50;57.00;;;;;;2182390;58;21071;-74
2023/04/20 12:26:23;;;;;;;4.50;2.53;;;15.50;57.10;;;;;;2390016;57;21004;-74
2023/04/20 12:28:52;;;;;;;4.32;2.45;;;15.50;56.90;;;;;;2394012;57;21938;-74
2023/04/20 12:31:19;;;;;;;3.83;2.40;;;15.50;56.80;;;;;;2184012;58;20971;-73
2023/04/20 12:33:46;;;;;;;4.20;2.55;;;15.50;56.70;;;;;;2182783;58;21105;-74
2023/04/20 12:36:13;;;;;;;5.05;2.80;;;15.50;56.70;;;;;;2393909;57;21054;-74
2023/04/20 12:38:39;;;;;;;4.43;2.47;;;15.60;56.80;;;;;;2394996;57;21051;-74
2023/04/20 12:41:07;;;;;;;3.70;2.03;;;15.60;56.80;;;;;;2395926;57;21023;-75
2023/04/20 12:43:34;;;;;;;3.08;1.98;;;15.60;56.90;;;;;;2394531;57;21052;-74
2023/04/20 12:46:08;;;;;;;3.90;1.80;;;15.60;57.10;;;;;;2185389;58;20959;-74
2023/04/20 12:48:36;;;;;;;4.53;2.67;;;15.60;57.20;;;;;;2386702;57;21335;-75
2023/04/20 12:51:03;;;;;;;3.53;2.20;;;15.70;57.40;;;;;;2186024;57;21093;-75
2023/04/20 12:53:29;;;;;;;4.20;2.37;;;15.70;57.40;;;;;;2388552;57;21027;-75
2023/04/20 12:55:55;;;;;;;5.65;2.20;;;15.70;57.40;;;;;;2184868;58;20963;-74